首页
METAR-TAF:

METAR-TAF

机场 :

聖皮埃爾機場

圣皮埃尔, 留尼汪岛

纬度: 21-20S, 经度: 055-29E, 海拔: 52米

当前天气观测

该预报发布于48分钟前的08:30 UTC
风速2节,风向多变
温度 26°C
湿度 70%
气压 1016 hPa
能见度10公里或以上
阴天层高于3200英尺

METAR: FMEP 160830Z AUTO VRB02KT 9999 OVC032 26/20 Q1016 NOSIG

时间: 13:18 (09:18 UTC)

预报

该预报发布于1小时和18分钟前的08:00 UTC
预报有效从16日的 09点(UTC)到 16日的 18点(UTC)
风速6节,风向南转西南
能见度10公里或以上
散云层高于2300英尺
多云层高于4000英尺
成为
从 16日的 14点(UTC)到 16日的 16点(UTC)
风速5节,风向东北

TAF: FMEP 160800Z 1609/1618 20006KT 9999 SCT023 BKN040 BECMG 1614/1616 04005KT

超过4000个机场的气象观测和天气预报(METAR&TAF报告)。

可查询的气象台以黄色和红色小点在地图上表示。

将鼠标移到小点上方,可查看气象台名称。

然后点击查看天气观测和预报。

如需切换地图:点击带黑十字的绿色按钮放大地图;点击带横线的绿色按钮缩小地图;或者点击绿色箭头查看邻近地区的地图。


METAR-TAF: